Hakozaki Maru — JJ3662 — position and weather

sailwx.info

Track history (hours):
 
Tides and Currents Weather Stations Pressure Air Temp Water Temp Dewpoint Dewpoint Depression Visibility Wind Speed Wind Dir Waves Ship Positions

Hakozaki Maru

Last reported at 2014-Dec-19 06:33 UTC. Time now 2014-Dec-20 14:24 UTC.
Position N 34°41' E 135°17'.

Length 31 m; draft 2.5 m.

Type: Tug. MMSI: 431000322.

Date/timePositionNaut miles runAvg speedWind from/ knotsBaromVisibWave heightAir tempDewpointWater temp
2014-Dec-19 06:33N 34°41' E 135°17'4 4.3
2014-Dec-19 05:33N 34°41' E 135°12'0 0.0
2014-Dec-19 04:33N 34°41' E 135°12'0 0.0
2014-Dec-19 03:33N 34°41' E 135°12'0 0.0
2014-Dec-19 02:33N 34°41' E 135°12'2 1.8
2014-Dec-19 01:33N 34°41' E 135°14'1 1.1
2014-Dec-19 00:33N 34°40' E 135°14'2 1.9
2014-Dec-18 23:33N 34°41' E 135°12'0 0.0
2014-Dec-18 22:33N 34°41' E 135°12'4 0.1
2014-Dec-17 08:33N 34°42' E 135°17'4 4.1
2014-Dec-17 07:34N 34°41' E 135°12'0 0.0
2014-Dec-17 06:34N 34°41' E 135°12'0 0.0
2014-Dec-17 05:33N 34°41' E 135°12'0 0.0
2014-Dec-17 04:33N 34°41' E 135°12'0 0.0
2014-Dec-17 03:34N 34°41' E 135°12'0 0.0
2014-Dec-17 02:34N 34°41' E 135°12'0 0.0
2014-Dec-17 01:34N 34°41' E 135°12'0 0.0
2014-Dec-17 00:33N 34°41' E 135°12'3 3.0
2014-Dec-16 23:34N 34°39' E 135°15'2 2.1
2014-Dec-16 22:34N 34°40' E 135°13'1 1.1
2014-Dec-16 21:34N 34°40' E 135°14'2 1.9
2014-Dec-16 20:34N 34°41' E 135°12'0 0.0
2014-Dec-16 06:15N 34°41' E 135°12'0 0.0
2014-Dec-16 05:33N 34°41' E 135°12'0 0.0
2014-Dec-16 04:33N 34°41' E 135°12'0 0.0
2014-Dec-16 03:32N 34°41' E 135°12'0 0.0
2014-Dec-16 02:31N 34°41' E 135°12'3 2.6
2014-Dec-16 01:33N 34°39' E 135°15'3 2.3
2014-Dec-16 00:26N 34°41' E 135°12'2 2.3
2014-Dec-15 23:33N 34°40' E 135°14'1 0.9
2014-Dec-15 22:33N 34°39' E 135°15'0 0.2
2014-Dec-15 21:33N 34°39' E 135°15'2 2.0
2014-Dec-15 20:33N 34°41' E 135°14'0 0.0
2014-Dec-15 06:33N 34°41' E 135°13'1 0.9
2014-Dec-15 05:33N 34°41' E 135°12'0 0.0
2014-Dec-15 04:33N 34°41' E 135°12'0 0.0
2014-Dec-15 03:33N 34°41' E 135°12'0 0.0
2014-Dec-15 02:33N 34°41' E 135°12'3 2.7
2014-Dec-15 01:34N 34°42' E 135°15'2 2.3
2014-Dec-15 00:34N 34°40' E 135°15'0 0.1
2014-Dec-14 23:33N 34°40' E 135°15'1 1.0
2014-Dec-14 22:34N 34°40' E 135°14'1 0.6
2014-Dec-14 21:33N 34°40' E 135°15'2 2.3
2014-Dec-14 20:33N 34°41' E 135°12'0 0.0
2014-Dec-14 07:06N 34°41' E 135°12'2 3.1
2014-Dec-14 06:33N 34°40' E 135°11'2 1.8
2014-Dec-14 05:33N 34°41' E 135°12'0 0.0
2014-Dec-14 04:33N 34°41' E 135°12'0 0.0
2014-Dec-14 03:33N 34°41' E 135°12'0 0.0
2014-Dec-14 02:33N 34°41' E 135°12'2 2.4
2014-Dec-14 01:33N 34°42' E 135°15'1 1.5
2014-Dec-14 00:33N 34°41' E 135°14'2 1.7
2014-Dec-13 23:33N 34°41' E 135°12'0 0.0
2014-Dec-13 22:33N 34°41' E 135°12'2 0.1
2014-Dec-12 05:34N 34°40' E 135°15'1 1.2
2014-Dec-12 04:33N 34°39' E 135°16'4 3.5
2014-Dec-12 03:33N 34°41' E 135°12'0 0.0
2014-Dec-12 02:33N 34°41' E 135°12'0 0.0
2014-Dec-12 01:33N 34°41' E 135°12'0 0.2
2014-Dec-12 00:34N 34°41' E 135°12'3 2.6
2014-Dec-11 23:33N 34°42' E 135°15'3 2.6
2014-Dec-11 22:33N 34°39' E 135°14'1 0.8
2014-Dec-11 21:33N 34°40' E 135°15'3 2.6
2014-Dec-11 20:33N 34°41' E 135°12'4 0.4
2014-Dec-11 09:15N 34°41' E 135°17'0 0.4
2014-Dec-11 08:33N 34°41' E 135°17'4 4.0
2014-Dec-11 07:33N 34°41' E 135°12'0 0.0
2014-Dec-11 06:33N 34°41' E 135°12'0 0.0
2014-Dec-11 05:33N 34°41' E 135°12'0 0.0
2014-Dec-11 04:33N 34°41' E 135°12'0 0.0
2014-Dec-11 03:33N 34°41' E 135°12'0 0.0
2014-Dec-11 02:32N 34°41' E 135°12'0 0.0
2014-Dec-11 01:33N 34°41' E 135°12'0 0.0
2014-Dec-11 00:33N 34°41' E 135°12'4 4.0
2014-Dec-10 23:33N 34°42' E 135°17'0 0.3
2014-Dec-10 22:33N 34°42' E 135°17'3 2.6
2014-Dec-10 21:33N 34°41' E 135°15'2 1.9
2014-Dec-10 20:33N 34°41' E 135°12'2 0.1
2014-Dec-10 07:06N 34°41' E 135°14'1 2.7
2014-Dec-10 06:33N 34°42' E 135°15'3 2.8
2014-Dec-10 05:33N 34°41' E 135°12'0 0.0
2014-Dec-10 04:33N 34°41' E 135°12'0 0.0
2014-Dec-10 03:33N 34°41' E 135°12'0 0.0
2014-Dec-10 02:33N 34°41' E 135°12'0 0.0
2014-Dec-10 01:33N 34°41' E 135°12'0 0.0
2014-Dec-10 00:33N 34°41' E 135°12'0 0.2
2014-Dec-09 23:33N 34°41' E 135°12'2 2.3
2014-Dec-09 22:34N 34°42' E 135°15'2 2.3
2014-Dec-09 21:33N 34°41' E 135°12'0 0.0
2014-Dec-09 20:33N 34°41' E 135°12'  
Track history (hours):
 
Tides and Currents Weather Stations Pressure Air Temp Water Temp Dewpoint Dewpoint Depression Visibility Wind Speed Wind Dir Waves Ship Positions

Hakozaki Maru

Last reported at 2014-Dec-19 06:33 UTC. Time now 2014-Dec-20 14:24 UTC.
Position N 34°41' E 135°17'.

Length 31 m; draft 2.5 m.

Type: Tug. MMSI: 431000322.

Date/timePositionNaut miles runAvg speedWind from/ knotsBaromVisibWave heightAir tempDewpointWater temp
2014-Dec-19 06:33N 34°41' E 135°17'4 4.3
2014-Dec-19 05:33N 34°41' E 135°12'0 0.0
2014-Dec-19 04:33N 34°41' E 135°12'0 0.0
2014-Dec-19 03:33N 34°41' E 135°12'0 0.0
2014-Dec-19 02:33N 34°41' E 135°12'2 1.8
2014-Dec-19 01:33N 34°41' E 135°14'1 1.1
2014-Dec-19 00:33N 34°40' E 135°14'2 1.9
2014-Dec-18 23:33N 34°41' E 135°12'0 0.0
2014-Dec-18 22:33N 34°41' E 135°12'4 0.1
2014-Dec-17 08:33N 34°42' E 135°17'4 4.1
2014-Dec-17 07:34N 34°41' E 135°12'0 0.0
2014-Dec-17 06:34N 34°41' E 135°12'0 0.0
2014-Dec-17 05:33N 34°41' E 135°12'0 0.0
2014-Dec-17 04:33N 34°41' E 135°12'0 0.0
2014-Dec-17 03:34N 34°41' E 135°12'0 0.0
2014-Dec-17 02:34N 34°41' E 135°12'0 0.0
2014-Dec-17 01:34N 34°41' E 135°12'0 0.0
2014-Dec-17 00:33N 34°41' E 135°12'3 3.0
2014-Dec-16 23:34N 34°39' E 135°15'2 2.1
2014-Dec-16 22:34N 34°40' E 135°13'1 1.1
2014-Dec-16 21:34N 34°40' E 135°14'2 1.9
2014-Dec-16 20:34N 34°41' E 135°12'0 0.0
2014-Dec-16 06:15N 34°41' E 135°12'0 0.0
2014-Dec-16 05:33N 34°41' E 135°12'0 0.0
2014-Dec-16 04:33N 34°41' E 135°12'0 0.0
2014-Dec-16 03:32N 34°41' E 135°12'0 0.0
2014-Dec-16 02:31N 34°41' E 135°12'3 2.6
2014-Dec-16 01:33N 34°39' E 135°15'3 2.3
2014-Dec-16 00:26N 34°41' E 135°12'2 2.3
2014-Dec-15 23:33N 34°40' E 135°14'1 0.9
2014-Dec-15 22:33N 34°39' E 135°15'0 0.2
2014-Dec-15 21:33N 34°39' E 135°15'2 2.0
2014-Dec-15 20:33N 34°41' E 135°14'0 0.0
2014-Dec-15 06:33N 34°41' E 135°13'1 0.9
2014-Dec-15 05:33N 34°41' E 135°12'0 0.0
2014-Dec-15 04:33N 34°41' E 135°12'0 0.0
2014-Dec-15 03:33N 34°41' E 135°12'0 0.0
2014-Dec-15 02:33N 34°41' E 135°12'3 2.7
2014-Dec-15 01:34N 34°42' E 135°15'2 2.3
2014-Dec-15 00:34N 34°40' E 135°15'0 0.1
2014-Dec-14 23:33N 34°40' E 135°15'1 1.0
2014-Dec-14 22:34N 34°40' E 135°14'1 0.6
2014-Dec-14 21:33N 34°40' E 135°15'2 2.3
2014-Dec-14 20:33N 34°41' E 135°12'0 0.0
2014-Dec-14 07:06N 34°41' E 135°12'2 3.1
2014-Dec-14 06:33N 34°40' E 135°11'2 1.8
2014-Dec-14 05:33N 34°41' E 135°12'0 0.0
2014-Dec-14 04:33N 34°41' E 135°12'0 0.0
2014-Dec-14 03:33N 34°41' E 135°12'0 0.0
2014-Dec-14 02:33N 34°41' E 135°12'2 2.4
2014-Dec-14 01:33N 34°42' E 135°15'1 1.5
2014-Dec-14 00:33N 34°41' E 135°14'2 1.7
2014-Dec-13 23:33N 34°41' E 135°12'0 0.0
2014-Dec-13 22:33N 34°41' E 135°12'2 0.1
2014-Dec-12 05:34N 34°40' E 135°15'1 1.2
2014-Dec-12 04:33N 34°39' E 135°16'4 3.5
2014-Dec-12 03:33N 34°41' E 135°12'0 0.0
2014-Dec-12 02:33N 34°41' E 135°12'0 0.0
2014-Dec-12 01:33N 34°41' E 135°12'0 0.2
2014-Dec-12 00:34N 34°41' E 135°12'3 2.6
2014-Dec-11 23:33N 34°42' E 135°15'3 2.6
2014-Dec-11 22:33N 34°39' E 135°14'1 0.8
2014-Dec-11 21:33N 34°40' E 135°15'3 2.6
2014-Dec-11 20:33N 34°41' E 135°12'4 0.4
2014-Dec-11 09:15N 34°41' E 135°17'0 0.4
2014-Dec-11 08:33N 34°41' E 135°17'4 4.0
2014-Dec-11 07:33N 34°41' E 135°12'0 0.0
2014-Dec-11 06:33N 34°41' E 135°12'0 0.0
2014-Dec-11 05:33N 34°41' E 135°12'0 0.0
2014-Dec-11 04:33N 34°41' E 135°12'0 0.0
2014-Dec-11 03:33N 34°41' E 135°12'0 0.0
2014-Dec-11 02:32N 34°41' E 135°12'0 0.0
2014-Dec-11 01:33N 34°41' E 135°12'0 0.0
2014-Dec-11 00:33N 34°41' E 135°12'4 4.0
2014-Dec-10 23:33N 34°42' E 135°17'0 0.3
2014-Dec-10 22:33N 34°42' E 135°17'3 2.6
2014-Dec-10 21:33N 34°41' E 135°15'2 1.9
2014-Dec-10 20:33N 34°41' E 135°12'2 0.1
2014-Dec-10 07:06N 34°41' E 135°14'1 2.7
2014-Dec-10 06:33N 34°42' E 135°15'3 2.8
2014-Dec-10 05:33N 34°41' E 135°12'0 0.0
2014-Dec-10 04:33N 34°41' E 135°12'0 0.0
2014-Dec-10 03:33N 34°41' E 135°12'0 0.0
2014-Dec-10 02:33N 34°41' E 135°12'0 0.0
2014-Dec-10 01:33N 34°41' E 135°12'0 0.0
2014-Dec-10 00:33N 34°41' E 135°12'0 0.2
2014-Dec-09 23:33N 34°41' E 135°12'2 2.3
2014-Dec-09 22:34N 34°42' E 135°15'2 2.3
2014-Dec-09 21:33N 34°41' E 135°12'0 0.0
2014-Dec-09 20:33N 34°41' E 135°12'  

Dump ship's entire track history